This is the latest recevied weather packets stored in our database for station/object AD7ZD. If no packets are shown the sender has not sent any weather packets the latest 1 day(s).
| Time | Temp. | Humidity | Pressure | Rain* | Wind** | Luminosity | Snow |
|---|---|---|---|---|---|---|---|
| 1778001409 | 9.44° C | 87% | 1011 hPa | 0 mm | 1.79 m/s, 152° | 116 W/m² | - |
| 1778001107 | 9.44° C | 88% | 1010.9 hPa | 0 mm | 2.24 m/s, 159° | 138 W/m² | - |
| 1778000804 | 9.44° C | 89% | 1010.8 hPa | 0 mm | 1.79 m/s, 140° | 177 W/m² | - |
| 1778000501 | 9.44° C | 90% | 1010.6 hPa | 0 mm | 2.68 m/s, 139° | 247 W/m² | - |
| 1778000201 | 9.44° C | 91% | 1010.8 hPa | 0 mm | 1.79 m/s, 128° | 154 W/m² | - |
| 1777999897 | 8.89° C | 91% | 1010.8 hPa | 0 mm | 1.34 m/s, 142° | 184 W/m² | - |
| 1777999592 | 8.89° C | 92% | 1010.5 hPa | 0 mm | 1.79 m/s, 127° | 106 W/m² | - |
| 1777999290 | 8.89° C | 92% | 1010.8 hPa | 0 mm | 1.34 m/s, 111° | 65 W/m² | - |
| 1777998988 | 8.89° C | 92% | 1010.6 hPa | 0 mm | 1.79 m/s, 104° | 79 W/m² | - |
| 1777998686 | 8.89° C | 93% | 1010.6 hPa | 0 mm | 1.79 m/s, 124° | 99 W/m² | - |
| 1777998383 | 8.89° C | 93% | 1010.6 hPa | 0 mm | 0.89 m/s, 228° | 132 W/m² | - |
| 1777998081 | 8.89° C | 93% | 1010.5 hPa | 0 mm | 0.89 m/s, 150° | 125 W/m² | - |
| 1777997778 | 8.89° C | 93% | 1010.4 hPa | 0 mm | 0.89 m/s, 173° | 166 W/m² | - |
| 1777997475 | 8.33° C | 93% | 1010.2 hPa | 0 mm | 0.89 m/s, 135° | 157 W/m² | - |
| 1777997173 | 8.33° C | 94% | 1010.3 hPa | 0 mm | 0.89 m/s, 144° | 252 W/m² | - |
| 1777996870 | 8.33° C | 94% | 1010.4 hPa | 0 mm | 0 m/s | 317 W/m² | - |
| 1777996566 | 8.89° C | 94% | 1010.3 hPa | 0.51 mm | 0 m/s | 223 W/m² | - |
| 1777996262 | 8.33° C | 94% | 1010.4 hPa | 1.27 mm | 0 m/s | 159 W/m² | - |
| 1777995958 | 7.78° C | 94% | 1010.4 hPa | 1.78 mm | 0 m/s | 124 W/m² | - |
| 1777995655 | 7.78° C | 94% | 1010.4 hPa | 1.27 mm | 0.89 m/s, 90° | 72 W/m² | - |
| 1777995352 | 7.78° C | 94% | 1010.3 hPa | 0 mm | 0.89 m/s, 74° | 48 W/m² | - |
| 1777995049 | 7.78° C | 94% | 1010.2 hPa | 0 mm | 0 m/s | 32 W/m² | - |
| 1777994746 | 7.78° C | 94% | 1010.1 hPa | 0 mm | 0.45 m/s, 194° | 34 W/m² | - |
| 1777994442 | 7.78° C | 94% | 1010 hPa | 0 mm | 0 m/s | 42 W/m² | - |
| 1777994137 | 7.78° C | 94% | 1010.2 hPa | 0 mm | 0 m/s | 79 W/m² | - |
* Rain latest hour (hover to see other rain measurements)
** Current wind speed in m/s (hover to see current wind gust speed)